sensor_id;sensor_type;location;lat;lon;timestamp;temperature;humidity
27226;DHT22;14732;51.074;3.788;2023-09-19T00:00:30;16.70;99.90
27226;DHT22;14732;51.074;3.788;2023-09-19T00:02:56;16.60;99.90
27226;DHT22;14732;51.074;3.788;2023-09-19T00:05:23;16.60;99.90
27226;DHT22;14732;51.074;3.788;2023-09-19T00:07:54;16.70;99.90
27226;DHT22;14732;51.074;3.788;2023-09-19T00:10:30;16.70;99.90
27226;DHT22;14732;51.074;3.788;2023-09-19T00:13:02;16.50;99.90
27226;DHT22;14732;51.074;3.788;2023-09-19T00:15:43;16.60;99.90
27226;DHT22;14732;51.074;3.788;2023-09-19T00:18:14;16.70;99.90
27226;DHT22;14732;51.074;3.788;2023-09-19T00:20:44;16.80;99.90
27226;DHT22;14732;51.074;3.788;2023-09-19T00:23:13;16.70;99.90
27226;DHT22;14732;51.074;3.788;2023-09-19T00:25:39;16.70;99.90
27226;DHT22;14732;51.074;3.788;2023-09-19T00:28:06;16.80;99.90
27226;DHT22;14732;51.074;3.788;2023-09-19T00:30:33;16.70;99.90
27226;DHT22;14732;51.074;3.788;2023-09-19T00:32:59;16.60;99.90
27226;DHT22;14732;51.074;3.788;2023-09-19T00:35:26;16.50;99.90
27226;DHT22;14732;51.074;3.788;2023-09-19T00:37:53;16.50;99.90
27226;DHT22;14732;51.074;3.788;2023-09-19T00:40:19;16.50;99.90
27226;DHT22;14732;51.074;3.788;2023-09-19T00:42:47;16.60;99.90
27226;DHT22;14732;51.074;3.788;2023-09-19T00:45:15;16.60;99.90
27226;DHT22;14732;51.074;3.788;2023-09-19T00:47:44;16.60;99.90
27226;DHT22;14732;51.074;3.788;2023-09-19T00:50:11;16.60;99.90
27226;DHT22;14732;51.074;3.788;2023-09-19T00:52:40;16.50;99.90
27226;DHT22;14732;51.074;3.788;2023-09-19T00:55:08;16.60;99.90
27226;DHT22;14732;51.074;3.788;2023-09-19T00:57:35;16.60;99.90
27226;DHT22;14732;51.074;3.788;2023-09-19T01:00:02;16.70;99.90
27226;DHT22;14732;51.074;3.788;2023-09-19T01:02:32;16.60;99.90
27226;DHT22;14732;51.074;3.788;2023-09-19T01:04:59;16.70;99.90
27226;DHT22;14732;51.074;3.788;2023-09-19T01:07:30;16.70;99.90
27226;DHT22;14732;51.074;3.788;2023-09-19T01:09:57;16.70;99.90
27226;DHT22;14732;51.074;3.788;2023-09-19T01:12:38;16.70;99.90
27226;DHT22;14732;51.074;3.788;2023-09-19T01:18:02;16.70;99.90
27226;DHT22;14732;51.074;3.788;2023-09-19T01:23:20;16.50;99.90
27226;DHT22;14732;51.074;3.788;2023-09-19T01:26:06;16.50;99.90
27226;DHT22;14732;51.074;3.788;2023-09-19T01:32:01;16.50;99.90
27226;DHT22;14732;51.074;3.788;2023-09-19T01:34:47;16.50;99.90
27226;DHT22;14732;51.074;3.788;2023-09-19T01:37:15;16.50;99.90
27226;DHT22;14732;51.074;3.788;2023-09-19T01:39:48;16.60;99.90
27226;DHT22;14732;51.074;3.788;2023-09-19T01:47:53;16.60;99.90
27226;DHT22;14732;51.074;3.788;2023-09-19T01:50:59;16.60;99.90
27226;DHT22;14732;51.074;3.788;2023-09-19T01:53:33;16.70;99.90
27226;DHT22;14732;51.074;3.788;2023-09-19T01:56:02;16.60;99.90
27226;DHT22;14732;51.074;3.788;2023-09-19T02:01:04;16.60;99.90
27226;DHT22;14732;51.074;3.788;2023-09-19T02:03:32;16.50;99.90
27226;DHT22;14732;51.074;3.788;2023-09-19T02:05:58;16.60;99.90
27226;DHT22;14732;51.074;3.788;2023-09-19T02:08:24;16.50;99.90
27226;DHT22;14732;51.074;3.788;2023-09-19T02:10:50;16.50;99.90
27226;DHT22;14732;51.074;3.788;2023-09-19T02:13:20;16.40;99.90
27226;DHT22;14732;51.074;3.788;2023-09-19T02:15:46;16.50;99.90
27226;DHT22;14732;51.074;3.788;2023-09-19T02:18:12;16.40;99.90
27226;DHT22;14732;51.074;3.788;2023-09-19T02:20:39;16.30;99.90
27226;DHT22;14732;51.074;3.788;2023-09-19T02:23:05;16.40;99.90
27226;DHT22;14732;51.074;3.788;2023-09-19T02:25:31;16.40;99.90
27226;DHT22;14732;51.074;3.788;2023-09-19T02:27:57;16.40;99.90
27226;DHT22;14732;51.074;3.788;2023-09-19T02:30:27;16.50;99.90
27226;DHT22;14732;51.074;3.788;2023-09-19T02:32:52;16.40;99.90
27226;DHT22;14732;51.074;3.788;2023-09-19T02:35:18;16.40;99.90
27226;DHT22;14732;51.074;3.788;2023-09-19T02:37:47;16.50;99.90
27226;DHT22;14732;51.074;3.788;2023-09-19T02:40:13;16.50;99.90
27226;DHT22;14732;51.074;3.788;2023-09-19T02:42:48;16.50;99.90
27226;DHT22;14732;51.074;3.788;2023-09-19T02:45:20;16.60;99.90
27226;DHT22;14732;51.074;3.788;2023-09-19T02:47:47;16.60;99.90
27226;DHT22;14732;51.074;3.788;2023-09-19T02:50:13;16.60;99.90
27226;DHT22;14732;51.074;3.788;2023-09-19T02:52:42;16.70;99.90
27226;DHT22;14732;51.074;3.788;2023-09-19T02:55:16;16.60;99.90
27226;DHT22;14732;51.074;3.788;2023-09-19T02:57:51;16.70;99.90
27226;DHT22;14732;51.074;3.788;2023-09-19T03:00:18;16.80;99.90
27226;DHT22;14732;51.074;3.788;2023-09-19T03:02:53;16.80;99.90
27226;DHT22;14732;51.074;3.788;2023-09-19T03:05:19;16.70;99.90
27226;DHT22;14732;51.074;3.788;2023-09-19T03:07:47;16.80;99.90
27226;DHT22;14732;51.074;3.788;2023-09-19T03:10:17;16.90;99.90
27226;DHT22;14732;51.074;3.788;2023-09-19T03:12:43;16.80;99.90
27226;DHT22;14732;51.074;3.788;2023-09-19T03:15:09;16.80;99.90
27226;DHT22;14732;51.074;3.788;2023-09-19T03:17:35;16.90;99.90
27226;DHT22;14732;51.074;3.788;2023-09-19T03:20:02;16.80;99.90
27226;DHT22;14732;51.074;3.788;2023-09-19T03:22:29;16.70;99.90
27226;DHT22;14732;51.074;3.788;2023-09-19T03:24:55;16.70;99.90
27226;DHT22;14732;51.074;3.788;2023-09-19T03:27:20;16.60;99.90
27226;DHT22;14732;51.074;3.788;2023-09-19T03:29:47;16.50;99.90
27226;DHT22;14732;51.074;3.788;2023-09-19T03:32:12;16.50;99.90
27226;DHT22;14732;51.074;3.788;2023-09-19T03:34:38;16.50;99.90
27226;DHT22;14732;51.074;3.788;2023-09-19T03:37:11;16.40;99.90
27226;DHT22;14732;51.074;3.788;2023-09-19T03:39:37;16.40;99.90
27226;DHT22;14732;51.074;3.788;2023-09-19T03:42:03;16.40;99.90
27226;DHT22;14732;51.074;3.788;2023-09-19T03:44:32;16.40;99.90
27226;DHT22;14732;51.074;3.788;2023-09-19T03:46:58;16.40;99.90
27226;DHT22;14732;51.074;3.788;2023-09-19T03:49:24;16.50;99.90
27226;DHT22;14732;51.074;3.788;2023-09-19T03:51:50;16.60;99.90
27226;DHT22;14732;51.074;3.788;2023-09-19T03:54:15;16.60;99.90
27226;DHT22;14732;51.074;3.788;2023-09-19T03:56:42;16.60;99.90
27226;DHT22;14732;51.074;3.788;2023-09-19T03:59:09;16.50;99.90
27226;DHT22;14732;51.074;3.788;2023-09-19T04:01:35;16.50;99.90
27226;DHT22;14732;51.074;3.788;2023-09-19T04:04:00;16.40;99.90
27226;DHT22;14732;51.074;3.788;2023-09-19T04:06:34;16.40;99.90
27226;DHT22;14732;51.074;3.788;2023-09-19T04:09:01;16.30;99.90
27226;DHT22;14732;51.074;3.788;2023-09-19T04:11:27;16.20;99.90
27226;DHT22;14732;51.074;3.788;2023-09-19T04:13:52;16.20;99.90
27226;DHT22;14732;51.074;3.788;2023-09-19T04:16:18;16.10;99.90
27226;DHT22;14732;51.074;3.788;2023-09-19T04:18:45;16.00;99.90
27226;DHT22;14732;51.074;3.788;2023-09-19T04:21:10;16.00;99.90
27226;DHT22;14732;51.074;3.788;2023-09-19T04:23:36;15.90;99.90
27226;DHT22;14732;51.074;3.788;2023-09-19T04:26:02;16.00;99.90
27226;DHT22;14732;51.074;3.788;2023-09-19T04:28:30;15.80;99.90
27226;DHT22;14732;51.074;3.788;2023-09-19T04:30:57;15.70;99.90
27226;DHT22;14732;51.074;3.788;2023-09-19T04:33:25;15.80;99.90
27226;DHT22;14732;51.074;3.788;2023-09-19T04:35:50;15.80;99.90
27226;DHT22;14732;51.074;3.788;2023-09-19T04:38:18;15.80;99.90
27226;DHT22;14732;51.074;3.788;2023-09-19T04:40:44;15.80;99.90
27226;DHT22;14732;51.074;3.788;2023-09-19T04:43:10;15.80;99.90
27226;DHT22;14732;51.074;3.788;2023-09-19T04:45:35;15.90;99.90
27226;DHT22;14732;51.074;3.788;2023-09-19T04:48:03;15.90;99.90
27226;DHT22;14732;51.074;3.788;2023-09-19T04:50:29;15.90;99.90
27226;DHT22;14732;51.074;3.788;2023-09-19T04:52:55;15.80;99.90
27226;DHT22;14732;51.074;3.788;2023-09-19T04:55:20;15.90;99.90
27226;DHT22;14732;51.074;3.788;2023-09-19T04:57:47;15.80;99.90
27226;DHT22;14732;51.074;3.788;2023-09-19T05:00:15;15.90;99.90
27226;DHT22;14732;51.074;3.788;2023-09-19T05:02:42;15.90;99.90
27226;DHT22;14732;51.074;3.788;2023-09-19T05:05:08;15.90;99.90
27226;DHT22;14732;51.074;3.788;2023-09-19T05:07:41;15.90;99.90
27226;DHT22;14732;51.074;3.788;2023-09-19T05:10:08;15.90;99.90
27226;DHT22;14732;51.074;3.788;2023-09-19T05:12:37;16.00;99.90
27226;DHT22;14732;51.074;3.788;2023-09-19T05:15:03;15.90;99.90
27226;DHT22;14732;51.074;3.788;2023-09-19T05:17:30;15.90;99.90
27226;DHT22;14732;51.074;3.788;2023-09-19T05:19:57;16.00;99.90
27226;DHT22;14732;51.074;3.788;2023-09-19T05:22:26;16.00;99.90
27226;DHT22;14732;51.074;3.788;2023-09-19T05:24:52;15.90;99.90
27226;DHT22;14732;51.074;3.788;2023-09-19T05:27:19;16.00;99.90
27226;DHT22;14732;51.074;3.788;2023-09-19T05:29:46;16.00;99.90
27226;DHT22;14732;51.074;3.788;2023-09-19T05:32:12;16.00;99.90
27226;DHT22;14732;51.074;3.788;2023-09-19T05:34:38;15.90;99.90
27226;DHT22;14732;51.074;3.788;2023-09-19T05:37:04;15.80;99.90
27226;DHT22;14732;51.074;3.788;2023-09-19T05:39:33;15.70;99.90
27226;DHT22;14732;51.074;3.788;2023-09-19T05:41:59;15.80;99.90
27226;DHT22;14732;51.074;3.788;2023-09-19T05:44:26;15.80;99.90
27226;DHT22;14732;51.074;3.788;2023-09-19T05:46:51;15.80;99.90
27226;DHT22;14732;51.074;3.788;2023-09-19T05:49:17;15.90;99.90
27226;DHT22;14732;51.074;3.788;2023-09-19T05:51:43;15.90;99.90
27226;DHT22;14732;51.074;3.788;2023-09-19T05:54:09;16.00;99.90
27226;DHT22;14732;51.074;3.788;2023-09-19T05:56:36;16.00;99.90
27226;DHT22;14732;51.074;3.788;2023-09-19T05:59:02;16.10;99.90
27226;DHT22;14732;51.074;3.788;2023-09-19T06:01:29;16.10;99.90
27226;DHT22;14732;51.074;3.788;2023-09-19T06:03:57;16.10;99.90
27226;DHT22;14732;51.074;3.788;2023-09-19T06:06:22;16.00;99.90
27226;DHT22;14732;51.074;3.788;2023-09-19T06:08:49;16.10;99.90
27226;DHT22;14732;51.074;3.788;2023-09-19T06:11:16;16.20;99.90
27226;DHT22;14732;51.074;3.788;2023-09-19T06:13:41;16.30;99.90
27226;DHT22;14732;51.074;3.788;2023-09-19T06:16:07;16.20;99.90
27226;DHT22;14732;51.074;3.788;2023-09-19T06:18:35;16.20;99.90
27226;DHT22;14732;51.074;3.788;2023-09-19T06:21:01;16.40;99.90
27226;DHT22;14732;51.074;3.788;2023-09-19T06:23:33;16.40;99.90
27226;DHT22;14732;51.074;3.788;2023-09-19T06:25:59;16.40;99.90
27226;DHT22;14732;51.074;3.788;2023-09-19T06:28:25;16.30;99.90
27226;DHT22;14732;51.074;3.788;2023-09-19T06:30:54;16.40;99.90
27226;DHT22;14732;51.074;3.788;2023-09-19T06:33:20;16.50;99.90
27226;DHT22;14732;51.074;3.788;2023-09-19T06:35:47;16.40;99.90
27226;DHT22;14732;51.074;3.788;2023-09-19T06:38:13;16.50;99.90
27226;DHT22;14732;51.074;3.788;2023-09-19T06:40:41;16.50;99.90
27226;DHT22;14732;51.074;3.788;2023-09-19T06:43:10;16.50;99.90
27226;DHT22;14732;51.074;3.788;2023-09-19T06:45:36;16.50;99.90
27226;DHT22;14732;51.074;3.788;2023-09-19T06:48:02;16.40;99.90
27226;DHT22;14732;51.074;3.788;2023-09-19T06:50:28;16.70;99.90
27226;DHT22;14732;51.074;3.788;2023-09-19T06:52:56;16.90;99.90
27226;DHT22;14732;51.074;3.788;2023-09-19T06:55:25;17.10;99.90
27226;DHT22;14732;51.074;3.788;2023-09-19T06:57:53;17.00;99.90
27226;DHT22;14732;51.074;3.788;2023-09-19T07:00:22;16.90;99.90
27226;DHT22;14732;51.074;3.788;2023-09-19T07:02:58;16.90;99.90
27226;DHT22;14732;51.074;3.788;2023-09-19T07:05:27;17.10;99.90
27226;DHT22;14732;51.074;3.788;2023-09-19T07:07:53;17.20;99.90
27226;DHT22;14732;51.074;3.788;2023-09-19T07:10:22;17.30;99.90
27226;DHT22;14732;51.074;3.788;2023-09-19T07:12:57;17.30;99.90
27226;DHT22;14732;51.074;3.788;2023-09-19T07:15:24;17.50;99.90
27226;DHT22;14732;51.074;3.788;2023-09-19T07:17:51;17.60;99.90
27226;DHT22;14732;51.074;3.788;2023-09-19T07:20:18;17.60;99.90
27226;DHT22;14732;51.074;3.788;2023-09-19T07:22:44;17.60;99.90
27226;DHT22;14732;51.074;3.788;2023-09-19T07:25:10;17.80;99.90
27226;DHT22;14732;51.074;3.788;2023-09-19T07:27:35;18.00;99.90
27226;DHT22;14732;51.074;3.788;2023-09-19T07:30:01;18.10;99.90
27226;DHT22;14732;51.074;3.788;2023-09-19T07:32:27;18.10;99.90
27226;DHT22;14732;51.074;3.788;2023-09-19T07:34:52;17.90;99.90
27226;DHT22;14732;51.074;3.788;2023-09-19T07:37:20;18.10;99.90
27226;DHT22;14732;51.074;3.788;2023-09-19T07:39:46;18.20;99.90
27226;DHT22;14732;51.074;3.788;2023-09-19T07:42:12;18.10;99.90
27226;DHT22;14732;51.074;3.788;2023-09-19T07:44:43;18.20;99.90
27226;DHT22;14732;51.074;3.788;2023-09-19T07:47:13;18.30;99.90
27226;DHT22;14732;51.074;3.788;2023-09-19T07:49:39;18.40;99.90
27226;DHT22;14732;51.074;3.788;2023-09-19T07:52:04;18.60;99.90
27226;DHT22;14732;51.074;3.788;2023-09-19T07:54:30;18.80;99.90
27226;DHT22;14732;51.074;3.788;2023-09-19T07:57:01;18.90;99.90
27226;DHT22;14732;51.074;3.788;2023-09-19T07:59:27;19.00;99.90
27226;DHT22;14732;51.074;3.788;2023-09-19T08:01:53;19.10;99.90
27226;DHT22;14732;51.074;3.788;2023-09-19T08:04:19;19.10;99.90
27226;DHT22;14732;51.074;3.788;2023-09-19T08:06:45;19.30;99.90
27226;DHT22;14732;51.074;3.788;2023-09-19T08:09:11;19.30;99.90
27226;DHT22;14732;51.074;3.788;2023-09-19T08:11:39;19.20;99.90
27226;DHT22;14732;51.074;3.788;2023-09-19T08:14:05;19.30;99.90
27226;DHT22;14732;51.074;3.788;2023-09-19T08:16:33;19.50;99.90
27226;DHT22;14732;51.074;3.788;2023-09-19T08:18:58;19.50;99.90
27226;DHT22;14732;51.074;3.788;2023-09-19T08:21:24;19.60;99.90
27226;DHT22;14732;51.074;3.788;2023-09-19T08:23:51;19.70;99.90
27226;DHT22;14732;51.074;3.788;2023-09-19T08:26:18;19.70;99.90
27226;DHT22;14732;51.074;3.788;2023-09-19T08:28:45;19.90;99.90
27226;DHT22;14732;51.074;3.788;2023-09-19T08:31:10;20.10;99.90
27226;DHT22;14732;51.074;3.788;2023-09-19T08:33:37;20.30;99.90
27226;DHT22;14732;51.074;3.788;2023-09-19T08:36:03;20.40;99.90
27226;DHT22;14732;51.074;3.788;2023-09-19T08:38:31;20.70;99.90
27226;DHT22;14732;51.074;3.788;2023-09-19T08:40:59;20.60;99.90
27226;DHT22;14732;51.074;3.788;2023-09-19T08:43:26;20.60;99.90
27226;DHT22;14732;51.074;3.788;2023-09-19T08:46:14;20.80;99.90
27226;DHT22;14732;51.074;3.788;2023-09-19T08:48:52;20.80;99.90
27226;DHT22;14732;51.074;3.788;2023-09-19T08:51:30;20.90;99.90
27226;DHT22;14732;51.074;3.788;2023-09-19T08:54:06;20.70;99.90
27226;DHT22;14732;51.074;3.788;2023-09-19T08:56:32;20.70;99.90
27226;DHT22;14732;51.074;3.788;2023-09-19T08:59:05;20.80;99.90
27226;DHT22;14732;51.074;3.788;2023-09-19T09:01:33;21.00;99.90
27226;DHT22;14732;51.074;3.788;2023-09-19T09:03:59;21.30;99.90
27226;DHT22;14732;51.074;3.788;2023-09-19T09:06:26;21.60;99.90
27226;DHT22;14732;51.074;3.788;2023-09-19T09:08:55;21.70;99.90
27226;DHT22;14732;51.074;3.788;2023-09-19T09:11:21;22.20;99.90
27226;DHT22;14732;51.074;3.788;2023-09-19T09:13:50;22.30;99.90
27226;DHT22;14732;51.074;3.788;2023-09-19T09:16:16;22.20;99.90
27226;DHT22;14732;51.074;3.788;2023-09-19T09:18:47;22.20;99.90
27226;DHT22;14732;51.074;3.788;2023-09-19T09:21:18;22.10;99.90
27226;DHT22;14732;51.074;3.788;2023-09-19T09:23:44;21.90;99.90
27226;DHT22;14732;51.074;3.788;2023-09-19T09:26:10;21.80;99.90
27226;DHT22;14732;51.074;3.788;2023-09-19T09:28:35;21.60;99.90
27226;DHT22;14732;51.074;3.788;2023-09-19T09:31:23;21.50;99.90
27226;DHT22;14732;51.074;3.788;2023-09-19T09:33:56;21.40;99.90
27226;DHT22;14732;51.074;3.788;2023-09-19T09:36:39;21.30;99.90
27226;DHT22;14732;51.074;3.788;2023-09-19T09:39:07;21.30;99.90
27226;DHT22;14732;51.074;3.788;2023-09-19T09:41:44;21.10;99.90
27226;DHT22;14732;51.074;3.788;2023-09-19T09:44:15;21.00;99.90
27226;DHT22;14732;51.074;3.788;2023-09-19T09:46:45;20.80;99.90
27226;DHT22;14732;51.074;3.788;2023-09-19T09:49:23;20.80;99.90
27226;DHT22;14732;51.074;3.788;2023-09-19T09:52:07;20.90;99.90
27226;DHT22;14732;51.074;3.788;2023-09-19T09:54:35;20.90;99.90
27226;DHT22;14732;51.074;3.788;2023-09-19T09:57:04;20.90;99.90
27226;DHT22;14732;51.074;3.788;2023-09-19T09:59:55;21.10;99.90
27226;DHT22;14732;51.074;3.788;2023-09-19T10:02:34;21.10;99.90
27226;DHT22;14732;51.074;3.788;2023-09-19T10:05:16;20.90;99.90
27226;DHT22;14732;51.074;3.788;2023-09-19T10:07:54;21.00;99.90
27226;DHT22;14732;51.074;3.788;2023-09-19T10:13:03;21.50;99.90
27226;DHT22;14732;51.074;3.788;2023-09-19T10:15:32;21.60;99.90
27226;DHT22;14732;51.074;3.788;2023-09-19T10:18:00;21.60;99.90
27226;DHT22;14732;51.074;3.788;2023-09-19T10:20:28;21.80;99.90
27226;DHT22;14732;51.074;3.788;2023-09-19T10:23:10;21.80;99.90
27226;DHT22;14732;51.074;3.788;2023-09-19T10:25:46;21.90;99.90
27226;DHT22;14732;51.074;3.788;2023-09-19T10:28:14;22.10;99.90
27226;DHT22;14732;51.074;3.788;2023-09-19T10:30:50;22.10;99.90
27226;DHT22;14732;51.074;3.788;2023-09-19T10:33:18;22.10;99.90
27226;DHT22;14732;51.074;3.788;2023-09-19T10:35:48;22.10;99.90
27226;DHT22;14732;51.074;3.788;2023-09-19T10:38:17;22.10;99.90
27226;DHT22;14732;51.074;3.788;2023-09-19T10:40:53;22.30;99.90
27226;DHT22;14732;51.074;3.788;2023-09-19T10:43:20;22.40;99.90
27226;DHT22;14732;51.074;3.788;2023-09-19T10:45:50;22.50;99.90
27226;DHT22;14732;51.074;3.788;2023-09-19T10:48:18;22.60;99.90
27226;DHT22;14732;51.074;3.788;2023-09-19T10:51:14;22.40;99.90
27226;DHT22;14732;51.074;3.788;2023-09-19T10:53:50;22.40;99.90
27226;DHT22;14732;51.074;3.788;2023-09-19T10:56:36;22.40;99.90
27226;DHT22;14732;51.074;3.788;2023-09-19T10:59:16;22.40;99.90
27226;DHT22;14732;51.074;3.788;2023-09-19T11:04:34;22.30;99.90
27226;DHT22;14732;51.074;3.788;2023-09-19T11:07:09;22.30;99.90
27226;DHT22;14732;51.074;3.788;2023-09-19T11:09:54;22.30;99.90
27226;DHT22;14732;51.074;3.788;2023-09-19T11:14:51;22.50;99.90
27226;DHT22;14732;51.074;3.788;2023-09-19T11:17:30;22.70;99.90
27226;DHT22;14732;51.074;3.788;2023-09-19T11:30:39;23.00;99.90
27226;DHT22;14732;51.074;3.788;2023-09-19T11:33:22;22.90;99.90
27226;DHT22;14732;51.074;3.788;2023-09-19T11:36:10;22.80;99.90
27226;DHT22;14732;51.074;3.788;2023-09-19T11:49:18;23.00;99.90
27226;DHT22;14732;51.074;3.788;2023-09-19T11:51:51;23.00;99.90
27226;DHT22;14732;51.074;3.788;2023-09-19T11:54:17;23.00;99.90
27226;DHT22;14732;51.074;3.788;2023-09-19T11:56:51;23.00;99.90
27226;DHT22;14732;51.074;3.788;2023-09-19T11:59:23;22.90;99.90
27226;DHT22;14732;51.074;3.788;2023-09-19T12:01:54;22.80;99.90
27226;DHT22;14732;51.074;3.788;2023-09-19T12:04:33;22.80;99.90
27226;DHT22;14732;51.074;3.788;2023-09-19T12:07:09;23.00;99.90
27226;DHT22;14732;51.074;3.788;2023-09-19T12:09:47;23.10;99.90
27226;DHT22;14732;51.074;3.788;2023-09-19T12:12:20;23.20;99.90
27226;DHT22;14732;51.074;3.788;2023-09-19T12:14:50;23.40;99.90
27226;DHT22;14732;51.074;3.788;2023-09-19T12:17:18;23.40;99.90
27226;DHT22;14732;51.074;3.788;2023-09-19T12:19:52;23.30;99.90
27226;DHT22;14732;51.074;3.788;2023-09-19T12:22:18;23.10;99.90
27226;DHT22;14732;51.074;3.788;2023-09-19T12:24:46;23.00;99.90
27226;DHT22;14732;51.074;3.788;2023-09-19T12:27:12;23.10;99.90
27226;DHT22;14732;51.074;3.788;2023-09-19T12:29:49;23.30;99.90
27226;DHT22;14732;51.074;3.788;2023-09-19T12:32:15;23.20;99.90
27226;DHT22;14732;51.074;3.788;2023-09-19T12:34:42;23.20;99.90
27226;DHT22;14732;51.074;3.788;2023-09-19T12:37:12;23.50;99.90
27226;DHT22;14732;51.074;3.788;2023-09-19T12:39:44;23.50;99.90
27226;DHT22;14732;51.074;3.788;2023-09-19T12:42:26;23.50;99.90
27226;DHT22;14732;51.074;3.788;2023-09-19T12:44:58;23.10;99.90
27226;DHT22;14732;51.074;3.788;2023-09-19T12:47:27;23.20;99.90
27226;DHT22;14732;51.074;3.788;2023-09-19T12:50:11;23.30;99.90
27226;DHT22;14732;51.074;3.788;2023-09-19T12:52:47;23.30;99.90
27226;DHT22;14732;51.074;3.788;2023-09-19T12:55:25;23.40;99.90
27226;DHT22;14732;51.074;3.788;2023-09-19T12:58:13;23.30;99.90
27226;DHT22;14732;51.074;3.788;2023-09-19T13:00:46;23.20;99.90
27226;DHT22;14732;51.074;3.788;2023-09-19T13:03:25;23.10;99.90
27226;DHT22;14732;51.074;3.788;2023-09-19T13:05:54;23.10;99.90
27226;DHT22;14732;51.074;3.788;2023-09-19T13:08:29;23.10;99.90
27226;DHT22;14732;51.074;3.788;2023-09-19T13:13:49;23.10;99.90
27226;DHT22;14732;51.074;3.788;2023-09-19T13:16:20;23.10;99.90
27226;DHT22;14732;51.074;3.788;2023-09-19T13:18:50;23.20;99.90
27226;DHT22;14732;51.074;3.788;2023-09-19T13:21:34;23.20;99.90
27226;DHT22;14732;51.074;3.788;2023-09-19T13:26:46;23.00;99.90
27226;DHT22;14732;51.074;3.788;2023-09-19T13:29:12;23.10;99.90
27226;DHT22;14732;51.074;3.788;2023-09-19T13:31:38;23.10;99.90
27226;DHT22;14732;51.074;3.788;2023-09-19T13:34:07;23.10;99.90
27226;DHT22;14732;51.074;3.788;2023-09-19T13:36:33;23.10;99.90
27226;DHT22;14732;51.074;3.788;2023-09-19T13:38:59;23.20;99.90
27226;DHT22;14732;51.074;3.788;2023-09-19T13:41:25;23.10;99.90
27226;DHT22;14732;51.074;3.788;2023-09-19T13:43:51;23.10;99.90
27226;DHT22;14732;51.074;3.788;2023-09-19T13:46:17;23.00;99.90
27226;DHT22;14732;51.074;3.788;2023-09-19T13:48:50;23.00;99.90
27226;DHT22;14732;51.074;3.788;2023-09-19T13:51:17;22.90;99.90
27226;DHT22;14732;51.074;3.788;2023-09-19T13:53:45;22.70;99.90
27226;DHT22;14732;51.074;3.788;2023-09-19T13:56:10;22.50;99.90
27226;DHT22;14732;51.074;3.788;2023-09-19T13:58:36;22.50;99.90
27226;DHT22;14732;51.074;3.788;2023-09-19T14:01:02;22.50;99.90
27226;DHT22;14732;51.074;3.788;2023-09-19T14:03:28;22.40;99.90
27226;DHT22;14732;51.074;3.788;2023-09-19T14:05:54;22.30;99.90
27226;DHT22;14732;51.074;3.788;2023-09-19T14:08:20;22.30;99.90
27226;DHT22;14732;51.074;3.788;2023-09-19T14:10:45;22.10;99.90
27226;DHT22;14732;51.074;3.788;2023-09-19T14:13:11;22.00;99.90
27226;DHT22;14732;51.074;3.788;2023-09-19T14:15:38;22.20;99.90
27226;DHT22;14732;51.074;3.788;2023-09-19T14:18:04;22.30;99.90
27226;DHT22;14732;51.074;3.788;2023-09-19T14:20:30;22.30;99.90
27226;DHT22;14732;51.074;3.788;2023-09-19T14:22:57;22.40;99.90
27226;DHT22;14732;51.074;3.788;2023-09-19T14:25:24;22.40;99.90
27226;DHT22;14732;51.074;3.788;2023-09-19T14:27:50;22.20;99.90
27226;DHT22;14732;51.074;3.788;2023-09-19T14:30:17;22.10;99.90
27226;DHT22;14732;51.074;3.788;2023-09-19T14:32:42;22.10;99.90
27226;DHT22;14732;51.074;3.788;2023-09-19T14:35:08;22.00;99.90
27226;DHT22;14732;51.074;3.788;2023-09-19T14:37:39;21.90;99.90
27226;DHT22;14732;51.074;3.788;2023-09-19T14:40:05;21.80;99.90
27226;DHT22;14732;51.074;3.788;2023-09-19T14:42:35;21.70;99.90
27226;DHT22;14732;51.074;3.788;2023-09-19T14:45:02;21.60;99.90
27226;DHT22;14732;51.074;3.788;2023-09-19T14:47:28;21.60;99.90
27226;DHT22;14732;51.074;3.788;2023-09-19T14:49:53;21.60;99.90
27226;DHT22;14732;51.074;3.788;2023-09-19T14:52:19;21.70;99.90
27226;DHT22;14732;51.074;3.788;2023-09-19T14:54:45;21.70;99.90
27226;DHT22;14732;51.074;3.788;2023-09-19T14:57:10;21.80;99.90
27226;DHT22;14732;51.074;3.788;2023-09-19T14:59:36;21.90;99.90
27226;DHT22;14732;51.074;3.788;2023-09-19T15:02:05;22.00;99.90
27226;DHT22;14732;51.074;3.788;2023-09-19T15:04:32;22.00;99.90
27226;DHT22;14732;51.074;3.788;2023-09-19T15:06:59;21.90;99.90
27226;DHT22;14732;51.074;3.788;2023-09-19T15:09:25;21.90;99.90
27226;DHT22;14732;51.074;3.788;2023-09-19T15:11:55;21.90;99.90
27226;DHT22;14732;51.074;3.788;2023-09-19T15:14:21;21.90;99.90
27226;DHT22;14732;51.074;3.788;2023-09-19T15:16:48;21.90;99.90
27226;DHT22;14732;51.074;3.788;2023-09-19T15:19:14;21.90;99.90
27226;DHT22;14732;51.074;3.788;2023-09-19T15:21:40;21.80;99.90
27226;DHT22;14732;51.074;3.788;2023-09-19T15:24:07;21.80;99.90
27226;DHT22;14732;51.074;3.788;2023-09-19T15:26:36;21.70;99.90
27226;DHT22;14732;51.074;3.788;2023-09-19T15:29:08;21.60;99.90
27226;DHT22;14732;51.074;3.788;2023-09-19T15:31:35;21.50;99.90
27226;DHT22;14732;51.074;3.788;2023-09-19T15:34:04;21.50;99.90
27226;DHT22;14732;51.074;3.788;2023-09-19T15:36:31;21.50;99.90
27226;DHT22;14732;51.074;3.788;2023-09-19T15:39:01;21.50;99.90
27226;DHT22;14732;51.074;3.788;2023-09-19T15:41:32;21.30;99.90
27226;DHT22;14732;51.074;3.788;2023-09-19T15:44:00;21.40;99.90
27226;DHT22;14732;51.074;3.788;2023-09-19T15:46:30;21.30;99.90
27226;DHT22;14732;51.074;3.788;2023-09-19T15:48:57;21.30;99.90
27226;DHT22;14732;51.074;3.788;2023-09-19T15:51:24;21.30;99.90
27226;DHT22;14732;51.074;3.788;2023-09-19T15:53:51;21.40;99.90
27226;DHT22;14732;51.074;3.788;2023-09-19T15:56:19;21.30;99.90
27226;DHT22;14732;51.074;3.788;2023-09-19T15:58:50;21.20;99.90
27226;DHT22;14732;51.074;3.788;2023-09-19T16:01:16;21.20;99.90
27226;DHT22;14732;51.074;3.788;2023-09-19T16:03:47;21.40;99.90
27226;DHT22;14732;51.074;3.788;2023-09-19T16:06:14;21.20;99.90
27226;DHT22;14732;51.074;3.788;2023-09-19T16:08:41;21.20;99.90
27226;DHT22;14732;51.074;3.788;2023-09-19T16:11:08;21.30;99.90
27226;DHT22;14732;51.074;3.788;2023-09-19T16:13:35;21.30;99.90
27226;DHT22;14732;51.074;3.788;2023-09-19T16:16:01;21.30;99.90
27226;DHT22;14732;51.074;3.788;2023-09-19T16:18:26;21.20;99.90
27226;DHT22;14732;51.074;3.788;2023-09-19T16:20:52;21.20;99.90
27226;DHT22;14732;51.074;3.788;2023-09-19T16:23:18;21.30;99.90
27226;DHT22;14732;51.074;3.788;2023-09-19T16:25:44;21.40;99.90
27226;DHT22;14732;51.074;3.788;2023-09-19T16:28:11;21.30;99.90
27226;DHT22;14732;51.074;3.788;2023-09-19T16:30:37;21.20;99.90
27226;DHT22;14732;51.074;3.788;2023-09-19T16:33:04;21.20;99.90